Time;durP1;ratioP1;P1;durP2;ratioP2;P2;SDS_P1;SDS_P2;PMS_P1;PMS_P2;Temp;Humidity;BMP_temperature;BMP_pressure;BME280_temperature;BME280_humidity;BME280_pressure;Samples;Min_cycle;Max_cycle;Signal;HPM_P1;HPM_P2
2023/01/25 00:02:43;;;;;;;;;;;2.00;99.90;;;;;;8398974;28;19959;-74
2023/01/25 00:06:45;;;;;;;;;;;2.00;99.90;;;;;;8376581;28;19925;-74
2023/01/25 00:10:49;;;;;;;;;;;2.00;99.90;;;;;;8389762;28;20376;-74
2023/01/25 00:14:51;;;;;;;;;;;2.00;99.90;;;;;;8407663;28;19924;-74
2023/01/25 00:18:53;;;;;;;;;;;2.00;99.90;;;;;;8394967;28;19924;-74
2023/01/25 00:22:54;;;;;;;;;;;2.00;99.90;;;;;;8397390;28;19936;-74
2023/01/25 00:26:56;;;;;;;;;;;2.00;99.90;;;;;;8396281;28;19930;-74
2023/01/25 00:30:58;;;;;;;;;;;2.00;99.90;;;;;;8421099;28;19955;-74
2023/01/25 00:35:00;;;;;;;;;;;2.00;99.90;;;;;;8387111;28;19944;-74
2023/01/25 00:39:02;;;;;;;;;;;2.00;99.90;;;;;;8408207;28;20380;-73
2023/01/25 00:43:04;;;;;;;;;;;2.00;99.90;;;;;;8379597;28;20288;-74
2023/01/25 00:47:05;;;;;;;;;;;2.00;99.90;;;;;;8401516;28;19924;-73
2023/01/25 00:51:07;;;;;;;;;;;2.00;99.90;;;;;;8369420;28;20365;-73
2023/01/25 00:55:09;;;;;;;;;;;2.00;99.90;;;;;;8414329;28;19929;-74
2023/01/25 00:59:11;;;;;;;;;;;2.00;99.90;;;;;;8410096;28;19939;-74
2023/01/25 01:03:13;;;;;;;;;;;2.00;99.90;;;;;;8387126;28;19924;-74
2023/01/25 01:07:15;;;;;;;;;;;2.00;99.90;;;;;;8392542;28;20399;-74
2023/01/25 01:11:16;;;;;;;;;;;2.00;99.90;;;;;;8381854;28;20024;-74
2023/01/25 01:15:18;;;;;;;;;;;1.90;99.90;;;;;;8372311;28;20438;-74
2023/01/25 01:19:20;;;;;;;;;;;1.90;99.90;;;;;;8409839;28;20428;-74
2023/01/25 01:23:21;;;;;;;;;;;1.90;99.90;;;;;;8387832;28;19924;-73
2023/01/25 01:27:23;;;;;;;;;;;1.90;99.90;;;;;;8384749;28;19928;-74
2023/01/25 01:31:25;;;;;;;;;;;1.90;99.90;;;;;;8403890;28;19935;-74
2023/01/25 01:35:30;;;;;;;;;;;1.90;99.90;;;;;;8401474;28;20391;-74
2023/01/25 01:39:31;;;;;;;;;;;1.90;99.90;;;;;;8384969;28;19936;-73
2023/01/25 01:43:34;;;;;;;;;;;1.90;99.90;;;;;;8384795;28;20034;-73
2023/01/25 01:47:40;;;;;;;;;;;1.90;99.90;;;;;;8368434;28;19951;-73
2023/01/25 01:51:51;;;;;;;;;;;2.00;99.90;;;;;;8377528;28;19975;-74
2023/01/25 01:55:54;;;;;;;;;;;2.00;99.90;;;;;;8401762;28;20379;-74
2023/01/25 02:00:08;;;;;;;;;;;1.90;99.90;;;;;;8379960;28;19924;-74
2023/01/25 02:04:11;;;;;;;;;;;1.90;99.90;;;;;;8389699;28;19924;-74
2023/01/25 02:08:13;;;;;;;;;;;1.90;99.90;;;;;;8397817;28;19939;-74
2023/01/25 02:12:16;;;;;;;;;;;1.90;99.90;;;;;;8383566;28;19970;-74
2023/01/25 02:16:21;;;;;;;;;;;1.90;99.90;;;;;;8403126;28;20290;-74
2023/01/25 02:20:22;;;;;;;;;;;1.80;99.90;;;;;;8399441;28;20380;-74
2023/01/25 02:24:29;;;;;;;;;;;1.80;99.90;;;;;;8404819;28;19928;-74
2023/01/25 02:28:39;;;;;;;;;;;1.80;99.90;;;;;;8401744;28;20027;-74
2023/01/25 02:32:40;;;;;;;;;;;1.80;99.90;;;;;;8400216;28;19934;-74
2023/01/25 02:36:42;;;;;;;;;;;1.70;99.90;;;;;;8401922;28;20022;-74
2023/01/25 02:40:46;;;;;;;;;;;1.70;99.90;;;;;;8406757;28;19929;-74
2023/01/25 02:44:49;;;;;;;;;;;1.70;99.90;;;;;;8382398;28;19924;-73
2023/01/25 02:48:51;;;;;;;;;;;1.60;99.90;;;;;;8402410;28;19924;-74
2023/01/25 02:52:53;;;;;;;;;;;1.60;99.90;;;;;;8391437;28;19929;-74
2023/01/25 02:56:54;;;;;;;;;;;1.60;99.90;;;;;;8396671;28;20012;-74
2023/01/25 03:00:56;;;;;;;;;;;1.60;99.90;;;;;;8406509;28;19924;-74
2023/01/25 03:04:58;;;;;;;;;;;1.60;99.90;;;;;;8391329;28;20394;-74
2023/01/25 03:09:00;;;;;;;;;;;1.70;99.90;;;;;;8409332;28;20368;-74
2023/01/25 03:13:02;;;;;;;;;;;1.60;99.90;;;;;;8407545;28;19978;-74
2023/01/25 03:17:03;;;;;;;;;;;1.60;99.90;;;;;;8381025;28;19971;-74
2023/01/25 03:21:05;;;;;;;;;;;1.60;99.90;;;;;;8391048;28;19975;-74
2023/01/25 03:25:07;;;;;;;;;;;1.60;99.90;;;;;;8404725;28;19935;-74
2023/01/25 03:29:09;;;;;;;;;;;1.60;99.90;;;;;;8365340;28;20028;-74
2023/01/25 03:33:11;;;;;;;;;;;1.60;99.90;;;;;;8384620;28;19929;-74
2023/01/25 03:37:12;;;;;;;;;;;1.60;99.90;;;;;;8399781;28;19925;-73
2023/01/25 03:41:14;;;;;;;;;;;1.60;99.90;;;;;;8402794;28;19959;-73
2023/01/25 03:45:16;;;;;;;;;;;1.60;99.90;;;;;;8371772;28;20418;-74
2023/01/25 03:49:18;;;;;;;;;;;1.40;99.90;;;;;;8398965;28;19932;-74
2023/01/25 03:53:28;;;;;;;;;;;1.40;99.90;;;;;;8391610;28;20459;-74
2023/01/25 03:57:30;;;;;;;;;;;1.30;99.90;;;;;;8381711;28;19971;-73
2023/01/25 04:01:31;;;;;;;;;;;1.30;99.90;;;;;;8393456;28;19924;-74
2023/01/25 04:05:33;;;;;;;;;;;1.30;99.90;;;;;;8400386;28;20355;-74
2023/01/25 04:09:34;;;;;;;;;;;1.30;99.90;;;;;;8378279;28;19925;-74
2023/01/25 04:13:36;;;;;;;;;;;1.30;99.90;;;;;;8417227;28;19924;-74
2023/01/25 04:17:38;;;;;;;;;;;1.40;99.90;;;;;;8392180;28;19967;-74
2023/01/25 04:21:39;;;;;;;;;;;1.40;99.90;;;;;;8374987;28;19925;-74
2023/01/25 04:25:41;;;;;;;;;;;1.40;99.90;;;;;;8404669;28;19975;-74
2023/01/25 04:29:43;;;;;;;;;;;1.40;99.90;;;;;;8394565;28;19980;-74
2023/01/25 04:33:45;;;;;;;;;;;1.30;99.90;;;;;;8381968;28;19940;-74
2023/01/25 04:37:54;;;;;;;;;;;1.20;99.90;;;;;;8393070;28;19928;-74
2023/01/25 04:41:55;;;;;;;;;;;1.20;99.90;;;;;;8393229;28;20353;-74
2023/01/25 04:45:59;;;;;;;;;;;1.20;99.90;;;;;;8392339;28;19932;-73
2023/01/25 04:50:01;;;;;;;;;;;1.20;99.90;;;;;;8384026;28;21973;-74
2023/01/25 04:54:02;;;;;;;;;;;1.10;99.90;;;;;;8392443;28;19935;-73
2023/01/25 04:58:04;;;;;;;;;;;1.10;99.90;;;;;;8396422;28;19990;-74
2023/01/25 05:02:06;;;;;;;;;;;1.10;99.90;;;;;;8379182;28;19932;-74
2023/01/25 05:06:07;;;;;;;;;;;1.10;99.90;;;;;;8394363;28;20014;-74
2023/01/25 05:10:10;;;;;;;;;;;1.20;99.90;;;;;;8378231;28;19971;-74
2023/01/25 05:14:11;;;;;;;;;;;1.20;99.90;;;;;;8376713;28;20368;-73
2023/01/25 05:18:13;;;;;;;;;;;1.20;99.90;;;;;;8387181;28;19978;-74
2023/01/25 05:22:16;;;;;;;;;;;1.20;99.90;;;;;;8388922;28;19986;-74
2023/01/25 05:30:37;;;;;;;;;;;1.10;99.90;;;;;;8385368;28;20360;-74
2023/01/25 05:34:39;;;;;;;;;;;1.10;99.90;;;;;;8381963;28;20453;-74
2023/01/25 05:38:41;;;;;;;;;;;1.10;99.90;;;;;;8390898;28;20469;-74
2023/01/25 05:42:42;;;;;;;;;;;1.10;99.90;;;;;;8382622;28;19924;-74
2023/01/25 05:46:44;;;;;;;;;;;1.10;99.90;;;;;;8360720;28;19935;-73
2023/01/25 05:50:46;;;;;;;;;;;1.10;99.90;;;;;;8369609;28;19928;-74
2023/01/25 05:54:48;;;;;;;;;;;1.10;99.90;;;;;;8384034;28;19924;-74
2023/01/25 05:58:53;;;;;;;;;;;1.10;99.90;;;;;;8379767;28;19960;-74
2023/01/25 06:02:55;;;;;;;;;;;1.10;99.90;;;;;;8395211;28;19967;-73
2023/01/25 06:06:57;;;;;;;;;;;1.10;99.90;;;;;;8377454;28;19947;-73
2023/01/25 06:11:04;;;;;;;;;;;1.10;99.90;;;;;;8378023;28;20307;-74
2023/01/25 06:15:06;;;;;;;;;;;1.00;99.90;;;;;;8386380;28;19925;-74
2023/01/25 06:19:11;;;;;;;;;;;1.00;99.90;;;;;;8390169;28;19924;-74
2023/01/25 06:23:12;;;;;;;;;;;0.90;99.90;;;;;;8386113;28;19929;-74
2023/01/25 06:27:14;;;;;;;;;;;0.90;99.90;;;;;;8402756;28;20331;-73
2023/01/25 06:31:16;;;;;;;;;;;0.90;99.90;;;;;;8392637;28;19929;-74
2023/01/25 06:35:18;;;;;;;;;;;1.00;99.90;;;;;;8415112;28;19928;-73
2023/01/25 06:39:20;;;;;;;;;;;1.00;99.90;;;;;;8415281;28;19925;-74
2023/01/25 06:43:21;;;;;;;;;;;1.00;99.90;;;;;;8414574;28;19932;-74
2023/01/25 06:47:23;;;;;;;;;;;0.90;99.90;;;;;;8410120;28;20024;-74
2023/01/25 06:51:24;;;;;;;;;;;0.90;99.90;;;;;;8412854;28;20058;-74
2023/01/25 06:55:26;;;;;;;;;;;0.90;99.90;;;;;;8393573;28;19931;-74
2023/01/25 06:59:28;;;;;;;;;;;0.90;99.90;;;;;;8404974;28;19928;-74
2023/01/25 07:03:30;;;;;;;;;;;0.80;99.90;;;;;;8402268;28;19932;-74
2023/01/25 07:07:32;;;;;;;;;;;0.70;99.90;;;;;;8379048;28;20035;-73
2023/01/25 07:11:33;;;;;;;;;;;0.70;99.90;;;;;;8407087;28;19924;-73
2023/01/25 07:15:35;;;;;;;;;;;0.70;99.90;;;;;;8417270;28;19967;-74
2023/01/25 07:19:36;;;;;;;;;;;0.80;99.90;;;;;;8411354;28;19976;-74
2023/01/25 07:23:38;;;;;;;;;;;0.80;99.90;;;;;;8424274;28;19931;-73
2023/01/25 07:27:40;;;;;;;;;;;0.80;99.90;;;;;;8421566;28;19924;-74
2023/01/25 07:31:42;;;;;;;;;;;0.80;99.90;;;;;;8397225;28;19928;-74
2023/01/25 07:35:44;;;;;;;;;;;0.80;99.90;;;;;;8379921;28;19954;-74
2023/01/25 07:39:48;;;;;;;;;;;0.80;99.90;;;;;;8401772;28;19935;-74
2023/01/25 07:43:50;;;;;;;;;;;0.80;99.90;;;;;;8411277;28;19954;-74
2023/01/25 07:47:51;;;;;;;;;;;0.80;99.90;;;;;;8389092;28;19934;-74
2023/01/25 07:51:53;;;;;;;;;;;0.80;99.90;;;;;;8418674;28;20271;-73
2023/01/25 07:55:57;;;;;;;;;;;0.80;99.90;;;;;;8407973;28;19939;-74
2023/01/25 07:59:58;;;;;;;;;;;0.80;99.90;;;;;;8411781;28;19924;-74
2023/01/25 08:04:00;;;;;;;;;;;0.80;99.90;;;;;;8409424;28;19955;-74
2023/01/25 08:08:02;;;;;;;;;;;0.80;99.90;;;;;;8403484;28;19925;-74
2023/01/25 08:12:05;;;;;;;;;;;0.80;99.90;;;;;;8405047;28;19924;-74
2023/01/25 08:16:09;;;;;;;;;;;0.80;99.90;;;;;;8398704;28;19928;-74
2023/01/25 08:20:11;;;;;;;;;;;0.80;99.90;;;;;;8392102;28;19928;-74
2023/01/25 08:24:13;;;;;;;;;;;0.80;99.90;;;;;;8414726;28;19924;-74
2023/01/25 08:33:21;;;;;;;;;;;0.80;99.90;;;;;;8403316;28;20371;-74
2023/01/25 08:37:22;;;;;;;;;;;0.70;99.90;;;;;;8409726;28;19967;-74
2023/01/25 08:41:25;;;;;;;;;;;0.70;99.90;;;;;;8395941;28;19934;-74
2023/01/25 08:45:26;;;;;;;;;;;0.70;99.90;;;;;;8404889;28;20014;-74
2023/01/25 08:49:29;;;;;;;;;;;0.70;99.90;;;;;;8408602;28;20012;-74
2023/01/25 08:53:31;;;;;;;;;;;0.70;99.90;;;;;;8417920;28;19925;-73
2023/01/25 08:57:33;;;;;;;;;;;0.70;99.90;;;;;;8402789;28;20570;-73
2023/01/25 09:01:35;;;;;;;;;;;0.70;99.90;;;;;;8383578;28;20149;-74
2023/01/25 09:05:37;;;;;;;;;;;0.70;99.90;;;;;;8398731;28;19925;-74
2023/01/25 09:09:39;;;;;;;;;;;0.70;99.90;;;;;;8414016;28;19931;-74
2023/01/25 09:13:43;;;;;;;;;;;0.80;99.90;;;;;;8419587;28;19924;-74
2023/01/25 09:17:45;;;;;;;;;;;0.80;99.90;;;;;;8393887;28;19971;-73
2023/01/25 09:21:47;;;;;;;;;;;0.80;99.90;;;;;;8410960;28;19970;-74
2023/01/25 09:25:56;;;;;;;;;;;0.80;99.90;;;;;;8389046;28;19925;-74
2023/01/25 09:29:57;;;;;;;;;;;0.90;99.90;;;;;;8399937;28;19924;-73
2023/01/25 09:34:03;;;;;;;;;;;0.90;99.90;;;;;;8395907;28;19928;-74
2023/01/25 09:38:05;;;;;;;;;;;0.80;99.90;;;;;;8399413;28;20379;-74
2023/01/25 09:42:19;;;;;;;;;;;0.80;99.90;;;;;;8404280;28;19930;-74
2023/01/25 09:46:47;;;;;;;;;;;0.80;99.90;;;;;;8389381;28;19924;-74
2023/01/25 09:51:00;;;;;;;;;;;0.80;99.90;;;;;;8385715;28;19970;-74
2023/01/25 09:55:01;;;;;;;;;;;0.70;99.90;;;;;;8389783;28;20404;-74
2023/01/25 09:59:05;;;;;;;;;;;0.70;99.90;;;;;;8387405;28;19983;-74
2023/01/25 10:03:26;;;;;;;;;;;0.70;99.90;;;;;;8406249;28;19967;-74
2023/01/25 10:07:30;;;;;;;;;;;0.60;99.90;;;;;;8399474;28;19932;-73
2023/01/25 10:11:32;;;;;;;;;;;0.60;99.90;;;;;;8389597;28;19932;-73
2023/01/25 10:15:54;;;;;;;;;;;0.60;99.90;;;;;;8337800;28;20375;-74
2023/01/25 10:20:08;;;;;;;;;;;0.60;99.90;;;;;;8358877;28;19928;-73
2023/01/25 10:24:29;;;;;;;;;;;0.60;99.90;;;;;;8387488;28;19968;-74
2023/01/25 10:28:37;;;;;;;;;;;0.60;99.90;;;;;;8378256;28;19947;-74
2023/01/25 10:32:39;;;;;;;;;;;0.70;99.90;;;;;;8365041;28;19925;-74
2023/01/25 10:37:11;;;;;;;;;;;0.70;99.90;;;;;;8349386;28;19983;-74
2023/01/25 10:41:17;;;;;;;;;;;0.70;99.90;;;;;;8364825;28;20256;-74
2023/01/25 10:45:19;;;;;;;;;;;0.70;99.90;;;;;;8368034;28;20368;-74
2023/01/25 10:49:21;;;;;;;;;;;0.70;99.90;;;;;;8362877;28;20296;-74
2023/01/25 10:58:38;;;;;;;;;;;0.70;99.90;;;;;;8353660;28;19935;-73
2023/01/25 11:02:43;;;;;;;;;;;0.80;99.90;;;;;;8360763;28;20019;-74
2023/01/25 11:06:50;;;;;;;;;;;0.80;99.90;;;;;;8387310;28;20006;-73
2023/01/25 11:10:52;;;;;;;;;;;0.80;99.90;;;;;;8371033;28;20397;-74
2023/01/25 11:14:53;;;;;;;;;;;0.80;99.90;;;;;;8417220;28;19935;-74
2023/01/25 11:18:56;;;;;;;;;;;0.70;99.90;;;;;;8387500;28;19928;-74
2023/01/25 11:22:58;;;;;;;;;;;0.70;99.90;;;;;;8410880;28;19986;-74
2023/01/25 11:27:18;;;;;;;;;;;0.60;99.90;;;;;;8405682;28;20380;-74
2023/01/25 11:31:20;;;;;;;;;;;0.60;99.90;;;;;;8400024;28;20010;-74
2023/01/25 11:35:24;;;;;;;;;;;0.60;99.90;;;;;;8396336;28;19934;-74
2023/01/25 11:39:45;;;;;;;;;;;0.50;99.90;;;;;;8407081;28;20280;-74
2023/01/25 11:43:57;;;;;;;;;;;0.50;99.90;;;;;;8405509;28;19928;-74
2023/01/25 11:48:05;;;;;;;;;;;0.50;99.90;;;;;;8405429;28;19975;-74
2023/01/25 11:52:33;;;;;;;;;;;0.50;99.90;;;;;;8393115;28;19934;-74
2023/01/25 11:56:37;;;;;;;;;;;0.50;99.90;;;;;;8357142;28;19924;-73
2023/01/25 12:00:47;;;;;;;;;;;0.60;99.90;;;;;;8401714;28;20051;-74
2023/01/25 12:05:15;;;;;;;;;;;0.50;99.90;;;;;;8377226;28;19925;-74
2023/01/25 12:09:31;;;;;;;;;;;0.50;99.90;;;;;;8355789;28;20010;-74
2023/01/25 12:13:33;;;;;;;;;;;0.50;99.90;;;;;;8419385;28;20402;-74
2023/01/25 12:17:47;;;;;;;;;;;0.60;99.90;;;;;;8413241;28;20521;-74
2023/01/25 12:22:08;;;;;;;;;;;0.60;99.90;;;;;;8383826;28;19986;-74
2023/01/25 12:31:17;;;;;;;;;;;0.60;99.90;;;;;;8393601;28;19927;-73
2023/01/25 12:35:37;;;;;;;;;;;0.50;99.90;;;;;;8395373;28;19924;-74
2023/01/25 12:50:20;;;;;;;;;;;0.50;99.90;;;;;;8401796;28;20398;-74
2023/01/25 12:54:27;;;;;;;;;;;0.40;99.90;;;;;;8407348;28;19924;-74
2023/01/25 13:08:35;;;;;;;;;;;0.50;99.90;;;;;;8402116;28;19919;-74
2023/01/25 13:12:58;;;;;;;;;;;0.40;99.90;;;;;;8386732;28;20006;-73
2023/01/25 13:17:18;;;;;;;;;;;0.40;99.90;;;;;;8400075;28;20360;-74
2023/01/25 13:21:35;;;;;;;;;;;0.40;99.90;;;;;;8417162;28;19931;-74
2023/01/25 13:25:37;;;;;;;;;;;0.40;99.90;;;;;;8417809;28;19924;-74
2023/01/25 13:29:38;;;;;;;;;;;0.40;99.90;;;;;;8407326;28;21218;-73
2023/01/25 13:33:40;;;;;;;;;;;0.40;99.90;;;;;;8409518;28;19963;-74
2023/01/25 13:37:42;;;;;;;;;;;0.50;99.90;;;;;;8407893;28;19931;-73
2023/01/25 13:42:00;;;;;;;;;;;0.50;99.90;;;;;;8413490;28;19924;-74
2023/01/25 13:46:03;;;;;;;;;;;0.50;99.90;;;;;;8391960;28;19933;-74
2023/01/25 13:50:20;;;;;;;;;;;0.60;99.90;;;;;;8381583;28;19928;-74
2023/01/25 13:54:22;;;;;;;;;;;0.60;99.90;;;;;;8398782;28;19935;-74
2023/01/25 13:58:26;;;;;;;;;;;0.60;99.90;;;;;;8395900;28;19963;-74
2023/01/25 14:02:29;;;;;;;;;;;0.50;99.90;;;;;;8392248;28;19974;-74
2023/01/25 14:06:32;;;;;;;;;;;0.50;99.90;;;;;;8385361;28;19968;-74
2023/01/25 14:10:33;;;;;;;;;;;0.50;99.90;;;;;;8382962;28;19932;-74
2023/01/25 14:14:37;;;;;;;;;;;0.40;99.90;;;;;;8386721;28;20119;-74
2023/01/25 14:18:41;;;;;;;;;;;0.40;99.90;;;;;;8371924;28;19932;-74
2023/01/25 14:22:46;;;;;;;;;;;0.30;99.90;;;;;;8386605;28;20283;-74
2023/01/25 14:26:47;;;;;;;;;;;0.30;99.90;;;;;;8388396;28;20019;-73
2023/01/25 14:30:53;;;;;;;;;;;0.30;99.90;;;;;;8372484;28;19936;-73
2023/01/25 14:34:55;;;;;;;;;;;0.20;99.90;;;;;;8372504;28;19931;-74
2023/01/25 14:38:57;;;;;;;;;;;0.30;99.90;;;;;;8366466;28;19978;-73
2023/01/25 14:42:59;;;;;;;;;;;0.20;99.90;;;;;;8372960;28;19929;-74
2023/01/25 14:47:39;;;;;;;;;;;0.30;99.90;;;;;;8352616;28;20589;-74
2023/01/25 14:51:45;;;;;;;;;;;0.30;99.90;;;;;;8294853;28;19925;-74
2023/01/25 14:55:48;;;;;;;;;;;0.30;99.90;;;;;;8346933;28;19963;-73
2023/01/25 14:59:50;;;;;;;;;;;0.30;99.90;;;;;;8360005;28;20004;-74
2023/01/25 15:03:52;;;;;;;;;;;0.20;99.90;;;;;;8373483;28;20019;-74
2023/01/25 15:07:54;;;;;;;;;;;0.20;99.90;;;;;;8387075;28;19985;-74
2023/01/25 15:11:59;;;;;;;;;;;0.20;99.90;;;;;;8372635;28;19978;-73
2023/01/25 15:16:02;;;;;;;;;;;0.20;99.90;;;;;;8368165;28;19933;-73
2023/01/25 15:20:04;;;;;;;;;;;0.10;99.90;;;;;;8368726;28;20269;-74
2023/01/25 15:24:10;;;;;;;;;;;0.10;99.90;;;;;;8385304;28;19929;-74
2023/01/25 15:28:13;;;;;;;;;;;0.10;99.90;;;;;;8385673;28;19932;-73
2023/01/25 15:32:19;;;;;;;;;;;0.10;99.90;;;;;;8368088;28;19932;-74
2023/01/25 15:36:21;;;;;;;;;;;0.10;99.90;;;;;;8354206;28;19979;-73
2023/01/25 15:40:23;;;;;;;;;;;0.10;99.90;;;;;;8370353;28;20398;-74
2023/01/25 15:44:24;;;;;;;;;;;0.10;99.90;;;;;;8354613;28;20892;-74
2023/01/25 15:48:31;;;;;;;;;;;0.10;99.90;;;;;;8374496;28;19928;-73
2023/01/25 15:52:33;;;;;;;;;;;0.10;99.90;;;;;;8379342;28;20031;-74
2023/01/25 15:56:36;;;;;;;;;;;0.00;99.90;;;;;;8374041;28;20384;-74
2023/01/25 16:05:35;;;;;;;;;;;-0.10;99.90;;;;;;8371153;28;20348;-74
2023/01/25 16:09:37;;;;;;;;;;;0.00;99.90;;;;;;8353869;28;19929;-74
2023/01/25 16:13:40;;;;;;;;;;;0.00;99.90;;;;;;8365146;28;19929;-73
2023/01/25 16:17:42;;;;;;;;;;;0.00;99.90;;;;;;8382934;28;19982;-74
2023/01/25 16:21:43;;;;;;;;;;;0.00;99.90;;;;;;8346460;28;19960;-73
2023/01/25 16:25:46;;;;;;;;;;;0.00;99.90;;;;;;8360662;28;19925;-74
2023/01/25 16:29:48;;;;;;;;;;;0.00;99.90;;;;;;8364906;28;20352;-74
2023/01/25 16:33:50;;;;;;;;;;;0.10;99.90;;;;;;8364045;28;20384;-74
2023/01/25 16:37:51;;;;;;;;;;;0.00;99.90;;;;;;8369559;28;20298;-74
2023/01/25 16:41:54;;;;;;;;;;;0.00;99.90;;;;;;8370200;28;20379;-74
2023/01/25 16:45:56;;;;;;;;;;;0.00;99.90;;;;;;8359112;28;19931;-74
2023/01/25 16:49:58;;;;;;;;;;;0.10;99.90;;;;;;8366866;28;20362;-74
2023/01/25 16:54:00;;;;;;;;;;;0.10;99.90;;;;;;8363475;28;20016;-74
2023/01/25 16:58:01;;;;;;;;;;;0.10;99.90;;;;;;8347778;28;20118;-74
2023/01/25 17:02:03;;;;;;;;;;;0.20;99.90;;;;;;8367756;28;20304;-73
2023/01/25 17:06:05;;;;;;;;;;;0.20;99.90;;;;;;8356411;28;19947;-74
2023/01/25 17:10:07;;;;;;;;;;;0.20;99.90;;;;;;8370375;28;20027;-74
2023/01/25 17:14:12;;;;;;;;;;;0.20;99.90;;;;;;8364996;28;20282;-74
2023/01/25 17:18:14;;;;;;;;;;;0.20;99.90;;;;;;8365042;28;19931;-73
2023/01/25 17:22:15;;;;;;;;;;;0.20;99.90;;;;;;8372800;28;19931;-73
2023/01/25 17:26:18;;;;;;;;;;;0.10;99.90;;;;;;8376136;28;19924;-74
2023/01/25 17:30:20;;;;;;;;;;;0.10;99.90;;;;;;8350394;28;20292;-74
2023/01/25 17:34:22;;;;;;;;;;;0.00;99.90;;;;;;8353549;28;20023;-73
2023/01/25 17:38:24;;;;;;;;;;;0.00;99.90;;;;;;8363799;28;20369;-74
2023/01/25 17:42:26;;;;;;;;;;;0.10;99.90;;;;;;8381403;28;19930;-74
2023/01/25 17:46:33;;;;;;;;;;;0.00;99.90;;;;;;8362456;28;19932;-74
2023/01/25 17:50:35;;;;;;;;;;;0.10;99.90;;;;;;8361668;28;19932;-74
2023/01/25 17:54:37;;;;;;;;;;;0.10;99.90;;;;;;8343379;28;20396;-73
2023/01/25 17:58:39;;;;;;;;;;;0.00;99.90;;;;;;8364488;28;19975;-74
2023/01/25 18:02:44;;;;;;;;;;;0.00;99.90;;;;;;8359386;28;19972;-74
2023/01/25 18:06:46;;;;;;;;;;;0.00;99.90;;;;;;8372422;28;19929;-74
2023/01/25 18:10:48;;;;;;;;;;;0.00;99.90;;;;;;8368032;28;20216;-74
2023/01/25 18:14:50;;;;;;;;;;;0.00;99.90;;;;;;8362455;28;19936;-73
2023/01/25 18:18:52;;;;;;;;;;;0.00;99.90;;;;;;8367294;28;19925;-74
2023/01/25 18:22:54;;;;;;;;;;;0.00;99.90;;;;;;8363511;28;19940;-73
2023/01/25 18:27:02;;;;;;;;;;;0.00;99.90;;;;;;8348521;28;19951;-74
2023/01/25 18:31:04;;;;;;;;;;;0.00;99.90;;;;;;8362415;28;19933;-73
2023/01/25 18:35:08;;;;;;;;;;;0.10;99.90;;;;;;8349460;28;19933;-74
2023/01/25 18:39:10;;;;;;;;;;;0.10;99.90;;;;;;8366986;28;19931;-74
2023/01/25 18:43:12;;;;;;;;;;;0.10;99.90;;;;;;8365062;28;19929;-74
2023/01/25 18:47:17;;;;;;;;;;;0.00;99.90;;;;;;8364134;28;19925;-74
2023/01/25 18:51:21;;;;;;;;;;;0.00;99.90;;;;;;8367691;28;19929;-74
2023/01/25 18:55:22;;;;;;;;;;;0.00;99.90;;;;;;8383174;28;19931;-74
2023/01/25 18:59:24;;;;;;;;;;;0.10;99.90;;;;;;8361206;28;19980;-74
2023/01/25 19:03:27;;;;;;;;;;;0.10;99.90;;;;;;8367756;28;19935;-74
2023/01/25 19:07:29;;;;;;;;;;;0.10;99.90;;;;;;8362071;28;19936;-74
2023/01/25 19:11:31;;;;;;;;;;;0.10;99.90;;;;;;8364373;28;20380;-74
2023/01/25 19:15:32;;;;;;;;;;;0.10;99.90;;;;;;8364956;28;19929;-74
2023/01/25 19:19:34;;;;;;;;;;;0.10;99.90;;;;;;8363778;28;20316;-74
2023/01/25 19:23:36;;;;;;;;;;;0.10;99.90;;;;;;8364211;28;19939;-74
2023/01/25 19:27:38;;;;;;;;;;;0.10;99.90;;;;;;8366341;28;19984;-74
2023/01/25 19:31:40;;;;;;;;;;;0.10;99.90;;;;;;8353895;28;20387;-74
2023/01/25 19:35:41;;;;;;;;;;;0.10;99.90;;;;;;8349304;28;19947;-74
2023/01/25 19:39:43;;;;;;;;;;;0.20;99.90;;;;;;8369041;28;19960;-73
2023/01/25 19:43:45;;;;;;;;;;;0.20;99.90;;;;;;8373314;28;20702;-74
2023/01/25 19:47:47;;;;;;;;;;;0.20;99.90;;;;;;8354183;28;20023;-74
2023/01/25 19:51:51;;;;;;;;;;;0.20;99.90;;;;;;8383671;28;19968;-74
2023/01/25 19:55:53;;;;;;;;;;;0.20;99.90;;;;;;8365635;28;20368;-74
2023/01/25 19:59:55;;;;;;;;;;;0.20;99.90;;;;;;8346730;28;19956;-73
2023/01/25 20:03:57;;;;;;;;;;;0.20;99.90;;;;;;8377231;28;19976;-74
2023/01/25 20:07:59;;;;;;;;;;;0.20;99.90;;;;;;8351423;28;19990;-74
2023/01/25 20:12:04;;;;;;;;;;;0.10;99.90;;;;;;8364626;28;20396;-74
2023/01/25 20:16:07;;;;;;;;;;;0.20;99.90;;;;;;8366268;28;19932;-74
2023/01/25 20:20:09;;;;;;;;;;;0.10;99.90;;;;;;8353585;28;19940;-74
2023/01/25 20:24:11;;;;;;;;;;;0.10;99.90;;;;;;8367560;28;19932;-74
2023/01/25 20:28:13;;;;;;;;;;;0.10;99.90;;;;;;8373757;28;22417;-74
2023/01/25 20:32:14;;;;;;;;;;;0.10;99.90;;;;;;8358162;28;19996;-74
2023/01/25 20:36:33;;;;;;;;;;;0.10;99.90;;;;;;8363725;28;19928;-74
2023/01/25 20:40:35;;;;;;;;;;;0.10;99.90;;;;;;8369551;28;20461;-74
2023/01/25 20:44:36;;;;;;;;;;;0.10;99.90;;;;;;8373933;28;20039;-74
2023/01/25 20:48:41;;;;;;;;;;;0.10;99.90;;;;;;8365528;28;19963;-74
2023/01/25 20:52:42;;;;;;;;;;;0.10;99.90;;;;;;8383225;28;19925;-74
2023/01/25 20:56:46;;;;;;;;;;;0.10;99.90;;;;;;8360136;28;20023;-74
2023/01/25 21:00:48;;;;;;;;;;;0.10;99.90;;;;;;8360462;28;19928;-74
2023/01/25 21:04:50;;;;;;;;;;;0.10;99.90;;;;;;8367350;28;20327;-74
2023/01/25 21:08:51;;;;;;;;;;;0.10;99.90;;;;;;8349177;28;20294;-74
2023/01/25 21:12:53;;;;;;;;;;;0.10;99.90;;;;;;8350113;28;19939;-74
2023/01/25 21:16:55;;;;;;;;;;;0.10;99.90;;;;;;8375622;28;20380;-73
2023/01/25 21:21:10;;;;;;;;;;;0.10;99.90;;;;;;8369494;28;19960;-75
2023/01/25 21:40:15;;;;;;;;;;;0.10;99.90;;;;;;8366395;28;19920;-74
2023/01/25 21:52:58;;;;;;;;;;;0.10;99.90;;;;;;8361446;28;19932;-74
2023/01/25 21:57:00;;;;;;;;;;;0.10;99.90;;;;;;8346967;28;20380;-74
2023/01/25 22:01:03;;;;;;;;;;;0.10;99.90;;;;;;8352039;28;19960;-74
2023/01/25 22:05:05;;;;;;;;;;;0.10;99.90;;;;;;8391486;28;19929;-74
2023/01/25 22:09:07;;;;;;;;;;;0.00;99.90;;;;;;8378147;28;19925;-74
2023/01/25 22:13:08;;;;;;;;;;;0.00;99.90;;;;;;8403161;28;19924;-74
2023/01/25 22:17:12;;;;;;;;;;;0.00;99.90;;;;;;8379999;28;19931;-74
2023/01/25 22:21:15;;;;;;;;;;;0.00;99.90;;;;;;8403660;28;20006;-74
2023/01/25 22:35:30;;;;;;;;;;;0.00;99.90;;;;;;8398900;28;19924;-74
2023/01/25 22:39:32;;;;;;;;;;;0.00;99.90;;;;;;8397502;28;19942;-74
2023/01/25 22:43:34;;;;;;;;;;;0.10;99.90;;;;;;8400796;28;19924;-74
2023/01/25 22:47:36;;;;;;;;;;;0.00;99.90;;;;;;8382824;28;19924;-74
2023/01/25 22:51:37;;;;;;;;;;;0.00;99.90;;;;;;8385263;28;20307;-74
2023/01/25 22:55:39;;;;;;;;;;;0.00;99.90;;;;;;8409815;28;19925;-74
2023/01/25 22:59:40;;;;;;;;;;;0.10;99.90;;;;;;8414096;28;19928;-74
2023/01/25 23:03:42;;;;;;;;;;;0.10;99.90;;;;;;8407235;28;19971;-74
2023/01/25 23:07:44;;;;;;;;;;;0.10;99.90;;;;;;8386581;28;19935;-74
2023/01/25 23:11:46;;;;;;;;;;;0.10;99.90;;;;;;8388680;28;19974;-74
2023/01/25 23:15:47;;;;;;;;;;;0.20;99.90;;;;;;8386826;28;19978;-74
2023/01/25 23:19:49;;;;;;;;;;;0.20;99.90;;;;;;8401561;28;20939;-74
2023/01/25 23:23:51;;;;;;;;;;;0.20;99.90;;;;;;8403675;28;19932;-74
2023/01/25 23:27:52;;;;;;;;;;;0.20;99.90;;;;;;8400643;28;20003;-74
2023/01/25 23:31:54;;;;;;;;;;;0.20;99.90;;;;;;8412768;28;20387;-74
2023/01/25 23:36:05;;;;;;;;;;;0.20;99.90;;;;;;8406991;28;19924;-74
2023/01/25 23:40:07;;;;;;;;;;;0.20;99.90;;;;;;8402373;28;20384;-74
2023/01/25 23:44:09;;;;;;;;;;;0.20;99.90;;;;;;8387329;28;19991;-74
2023/01/25 23:48:11;;;;;;;;;;;0.10;99.90;;;;;;8399361;28;19928;-74
2023/01/25 23:52:12;;;;;;;;;;;0.10;99.90;;;;;;8384887;28;19929;-74
2023/01/25 23:56:16;;;;;;;;;;;0.20;99.90;;;;;;8403022;28;19924;-74
